Time;durP1;ratioP1;P1;durP2;ratioP2;P2;SDS_P1;SDS_P2;PMS_P1;PMS_P2;Temp;Humidity;BMP_temperature;BMP_pressure;BME280_temperature;BME280_humidity;BME280_pressure;Samples;Min_cycle;Max_cycle;Signal;HPM_P1;HPM_P2
2021/10/19 00:01:43;;;;;;;4.55;2.20;;;;;;;;;;4657952;30;32208;-64
2021/10/19 00:04:10;;;;;;;5.63;2.13;;;;;;;;;;4670621;30;32359;-64
2021/10/19 00:06:36;;;;;;;5.85;2.67;;;;;;;;;;4670834;30;32282;-63
2021/10/19 00:09:03;;;;;;;5.03;2.15;;;;;;;;;;4669869;30;35316;-65
2021/10/19 00:11:31;;;;;;;8.50;2.60;;;;;;;;;;4664135;30;32541;-66
2021/10/19 00:13:58;;;;;;;4.90;2.47;;;;;;;;;;4653145;30;32443;-66
2021/10/19 00:16:24;;;;;;;6.28;2.33;;;;;;;;;;4655530;30;32230;-65
2021/10/19 00:18:51;;;;;;;4.63;2.58;;;;;;;;;;4653165;30;34032;-63
2021/10/19 00:21:17;;;;;;;4.82;2.20;;;;;;;;;;4653144;30;32444;-64
2021/10/19 00:23:44;;;;;;;6.13;2.63;;;;;;;;;;4653139;30;32456;-63
2021/10/19 00:26:10;;;;;;;6.13;2.08;;;;;;;;;;4668084;30;32433;-66
2021/10/19 00:28:39;;;;;;;4.80;2.35;;;;;;;;;;4670501;30;32240;-67
2021/10/19 00:31:05;;;;;;;5.53;2.38;;;;;;;;;;4670263;30;33981;-63
2021/10/19 00:33:32;;;;;;;4.57;2.03;;;;;;;;;;4659472;30;32506;-66
2021/10/19 00:35:58;;;;;;;4.93;2.50;;;;;;;;;;4653041;30;32431;-63
2021/10/19 00:38:25;;;;;;;5.85;1.83;;;;;;;;;;4649017;30;32165;-63
2021/10/19 00:40:52;;;;;;;5.00;2.28;;;;;;;;;;4652705;30;34329;-64
2021/10/19 00:43:18;;;;;;;5.07;2.00;;;;;;;;;;4656569;30;32485;-63
2021/10/19 00:45:47;;;;;;;4.85;2.35;;;;;;;;;;4652986;30;32382;-64
2021/10/19 00:48:16;;;;;;;3.67;2.22;;;;;;;;;;4652839;30;32378;-63
2021/10/19 00:50:43;;;;;;;5.63;2.10;;;;;;;;;;4652983;30;32387;-65
2021/10/19 00:53:11;;;;;;;5.82;2.42;;;;;;;;;;4652619;30;34230;-63
2021/10/19 00:55:38;;;;;;;4.32;2.15;;;;;;;;;;4652708;30;32514;-64
2021/10/19 00:58:06;;;;;;;3.88;2.40;;;;;;;;;;4659658;30;32318;-64
2021/10/19 01:00:33;;;;;;;4.78;1.80;;;;;;;;;;4670222;30;32338;-65
2021/10/19 01:03:01;;;;;;;5.03;2.08;;;;;;;;;;4666040;30;34640;-63
2021/10/19 01:05:28;;;;;;;5.20;2.45;;;;;;;;;;4662561;30;32743;-66
2021/10/19 01:07:55;;;;;;;5.60;2.67;;;;;;;;;;4669988;30;32445;-65
2021/10/19 01:10:21;;;;;;;3.50;2.15;;;;;;;;;;4670001;30;32434;-63
2021/10/19 01:12:49;;;;;;;6.05;2.88;;;;;;;;;;4653823;30;32532;-65
2021/10/19 01:15:17;;;;;;;4.45;2.20;;;;;;;;;;4652765;30;35042;-64
2021/10/19 01:17:45;;;;;;;5.82;2.92;;;;;;;;;;4652610;30;32429;-64
2021/10/19 01:20:27;;;;;;;5.57;2.53;;;;;;;;;;4652849;30;32183;-64
2021/10/19 01:22:55;;;;;;;6.38;2.53;;;;;;;;;;4652723;30;32308;-66
2021/10/19 01:25:24;;;;;;;6.32;2.75;;;;;;;;;;4655094;30;35125;-64
2021/10/19 01:27:54;;;;;;;4.13;2.78;;;;;;;;;;4657667;30;32404;-64
2021/10/19 01:30:21;;;;;;;6.22;2.78;;;;;;;;;;4661581;30;32387;-66
2021/10/19 01:32:48;;;;;;;6.55;2.83;;;;;;;;;;4655163;30;32151;-65
2021/10/19 01:35:17;;;;;;;5.80;2.55;;;;;;;;;;4652621;30;32441;-64
2021/10/19 01:37:44;;;;;;;5.35;2.75;;;;;;;;;;4652564;30;34623;-63
2021/10/19 01:40:13;;;;;;;4.80;2.92;;;;;;;;;;4652379;30;32304;-66
2021/10/19 01:42:41;;;;;;;5.05;2.55;;;;;;;;;;4647742;30;32281;-63
2021/10/19 01:45:13;;;;;;;5.20;2.33;;;;;;;;;;4650198;30;32154;-66
2021/10/19 01:47:40;;;;;;;6.30;2.10;;;;;;;;;;4664494;30;35354;-64
2021/10/19 01:50:07;;;;;;;6.18;2.95;;;;;;;;;;4669674;30;32644;-64
2021/10/19 01:52:35;;;;;;;4.65;2.10;;;;;;;;;;4669687;30;32341;-65
2021/10/19 01:55:04;;;;;;;7.20;2.53;;;;;;;;;;4663008;30;32453;-62
2021/10/19 01:57:31;;;;;;;5.47;2.22;;;;;;;;;;4652360;30;32420;-62
2021/10/19 01:59:58;;;;;;;4.60;1.80;;;;;;;;;;4652056;30;33959;-64
2021/10/19 02:02:24;;;;;;;6.90;2.35;;;;;;;;;;4651018;30;32539;-63
2021/10/19 02:04:51;;;;;;;5.10;2.20;;;;;;;;;;4651862;30;32488;-63
2021/10/19 02:07:17;;;;;;;4.95;2.53;;;;;;;;;;4659605;30;32512;-64
2021/10/19 02:09:45;;;;;;;5.10;2.42;;;;;;;;;;4669071;30;35394;-63
2021/10/19 02:12:12;;;;;;;5.47;1.98;;;;;;;;;;4653532;30;32465;-62
2021/10/19 02:14:39;;;;;;;5.88;2.33;;;;;;;;;;4652050;30;32365;-63
2021/10/19 02:17:05;;;;;;;5.72;2.53;;;;;;;;;;4665952;30;32433;-64
2021/10/19 02:19:32;;;;;;;5.15;2.50;;;;;;;;;;4669330;30;32396;-64
2021/10/19 02:21:58;;;;;;;4.18;2.00;;;;;;;;;;4655575;30;36158;-65
2021/10/19 02:24:25;;;;;;;6.10;2.45;;;;;;;;;;4653029;30;32424;-63
2021/10/19 02:26:53;;;;;;;4.40;2.10;;;;;;;;;;4641975;30;32300;-64
2021/10/19 02:29:20;;;;;;;8.90;2.88;;;;;;;;;;4652039;30;32359;-64
2021/10/19 02:31:47;;;;;;;7.40;2.53;;;;;;;;;;4651723;30;34803;-63
2021/10/19 02:34:16;;;;;;;5.30;2.20;;;;;;;;;;4651701;30;32407;-63
2021/10/19 02:36:43;;;;;;;5.15;2.55;;;;;;;;;;4651352;30;32524;-64
2021/10/19 02:39:10;;;;;;;5.43;2.85;;;;;;;;;;4651662;30;32428;-64
2021/10/19 02:41:38;;;;;;;7.03;2.80;;;;;;;;;;4650187;30;32560;-64
2021/10/19 02:44:06;;;;;;;4.35;2.72;;;;;;;;;;4654232;30;33952;-67
2021/10/19 02:46:33;;;;;;;8.35;2.25;;;;;;;;;;4646773;30;32418;-66
2021/10/19 02:49:03;;;;;;;5.63;2.47;;;;;;;;;;4653755;30;32403;-64
2021/10/19 02:51:29;;;;;;;5.25;2.28;;;;;;;;;;4649412;30;32447;-63
2021/10/19 02:53:56;;;;;;;4.40;2.47;;;;;;;;;;4659760;30;35104;-65
2021/10/19 02:56:23;;;;;;;4.82;2.40;;;;;;;;;;4671110;30;32512;-64
2021/10/19 02:58:50;;;;;;;6.93;2.60;;;;;;;;;;4653508;30;32548;-63
2021/10/19 03:01:18;;;;;;;5.25;2.22;;;;;;;;;;4652994;30;32266;-64
2021/10/19 03:03:44;;;;;;;7.65;2.75;;;;;;;;;;4654028;30;32305;-64
2021/10/19 03:06:11;;;;;;;6.18;2.58;;;;;;;;;;4654904;30;35269;-66
2021/10/19 03:08:38;;;;;;;5.07;2.22;;;;;;;;;;4653771;30;32494;-65
2021/10/19 03:11:04;;;;;;;4.63;2.45;;;;;;;;;;4652845;30;32395;-66
2021/10/19 03:13:31;;;;;;;6.90;2.55;;;;;;;;;;4653272;30;32410;-64
2021/10/19 03:15:58;;;;;;;8.20;2.33;;;;;;;;;;4656880;30;36007;-67
2021/10/19 03:18:26;;;;;;;12.35;2.90;;;;;;;;;;4670476;30;32730;-65
2021/10/19 03:20:53;;;;;;;6.35;2.72;;;;;;;;;;4653759;30;32309;-65
2021/10/19 03:23:20;;;;;;;4.15;2.53;;;;;;;;;;4653607;30;32398;-63
2021/10/19 03:25:47;;;;;;;6.55;2.30;;;;;;;;;;4653994;30;32255;-64
2021/10/19 03:28:13;;;;;;;8.02;3.05;;;;;;;;;;4653562;30;35383;-63
2021/10/19 03:30:40;;;;;;;5.22;2.55;;;;;;;;;;4664562;30;32584;-67
2021/10/19 03:33:07;;;;;;;10.07;2.72;;;;;;;;;;4670653;30;32493;-63
2021/10/19 03:35:35;;;;;;;9.23;2.90;;;;;;;;;;4639275;30;32617;-63
2021/10/19 03:38:02;;;;;;;8.55;2.85;;;;;;;;;;4633645;30;34196;-63
2021/10/19 03:40:28;;;;;;;;;;;;;;;;;;4634898;30;32459;-63
2021/10/19 03:42:55;;;;;;;7.20;2.90;;;;;;;;;;4634244;30;32449;-64
2021/10/19 03:45:22;;;;;;;6.55;2.53;;;;;;;;;;4669806;30;32514;-64
2021/10/19 03:47:48;;;;;;;7.10;2.80;;;;;;;;;;4671064;30;32369;-64
2021/10/19 03:50:16;;;;;;;5.93;2.20;;;;;;;;;;4670647;30;34221;-67
2021/10/19 03:52:44;;;;;;;5.78;2.50;;;;;;;;;;4670712;30;32343;-63
2021/10/19 03:55:10;;;;;;;7.22;2.13;;;;;;;;;;4669959;30;32437;-63
2021/10/19 03:57:39;;;;;;;6.55;2.13;;;;;;;;;;4670244;30;32417;-64
2021/10/19 04:00:07;;;;;;;3.90;2.22;;;;;;;;;;4655794;30;34627;-65
2021/10/19 04:02:34;;;;;;;6.63;2.42;;;;;;;;;;4653079;30;32442;-64
2021/10/19 04:05:00;;;;;;;7.15;2.45;;;;;;;;;;4653004;30;32396;-64
2021/10/19 04:07:27;;;;;;;6.70;2.10;;;;;;;;;;4649040;30;32419;-63
2021/10/19 04:09:55;;;;;;;5.95;2.08;;;;;;;;;;4659106;30;32789;-63
2021/10/19 04:12:21;;;;;;;8.50;2.45;;;;;;;;;;4658568;30;35102;-64
2021/10/19 04:14:48;;;;;;;4.82;2.00;;;;;;;;;;4653074;30;32542;-65
2021/10/19 04:17:16;;;;;;;4.82;2.15;;;;;;;;;;4652937;30;32372;-63
2021/10/19 04:19:42;;;;;;;7.00;2.30;;;;;;;;;;4653126;30;32383;-64
2021/10/19 04:22:09;;;;;;;3.72;1.98;;;;;;;;;;4652611;30;35025;-64
2021/10/19 04:24:36;;;;;;;4.75;2.45;;;;;;;;;;4663612;30;32247;-63
2021/10/19 04:27:04;;;;;;;6.80;1.90;;;;;;;;;;4670068;30;32491;-63
2021/10/19 04:29:31;;;;;;;5.57;2.85;;;;;;;;;;4667712;30;33067;-66
2021/10/19 04:31:57;;;;;;;9.27;2.20;;;;;;;;;;4635514;30;32405;-64
2021/10/19 04:34:24;;;;;;;7.28;2.20;;;;;;;;;;4641628;30;34141;-63
2021/10/19 04:36:51;;;;;;;5.47;2.08;;;;;;;;;;4664971;30;32172;-66
2021/10/19 04:39:17;;;;;;;4.45;1.92;;;;;;;;;;4668923;30;32436;-64
2021/10/19 04:41:44;;;;;;;6.65;2.22;;;;;;;;;;4669603;30;32379;-63
2021/10/19 04:44:12;;;;;;;9.55;2.53;;;;;;;;;;4669280;30;35683;-64
2021/10/19 04:46:40;;;;;;;8.60;2.50;;;;;;;;;;4653764;30;32552;-66
2021/10/19 04:49:07;;;;;;;8.00;2.40;;;;;;;;;;4651071;30;32545;-64
2021/10/19 04:51:34;;;;;;;8.70;2.97;;;;;;;;;;4649907;30;32492;-65
2021/10/19 04:54:01;;;;;;;13.75;2.47;;;;;;;;;;4650341;30;32417;-63
2021/10/19 04:56:27;;;;;;;10.25;2.67;;;;;;;;;;4651320;30;34470;-63
2021/10/19 04:58:54;;;;;;;7.78;2.25;;;;;;;;;;4650768;30;32504;-67
2021/10/19 05:01:22;;;;;;;8.60;2.05;;;;;;;;;;4651151;30;32426;-64
2021/10/19 05:03:48;;;;;;;10.35;2.42;;;;;;;;;;4651297;30;32672;-63
2021/10/19 05:06:16;;;;;;;19.88;3.22;;;;;;;;;;4649609;30;34435;-63
2021/10/19 05:08:42;;;;;;;20.77;4.00;;;;;;;;;;4646682;30;32610;-65
2021/10/19 05:11:09;;;;;;;23.95;4.95;;;;;;;;;;4646842;30;32570;-63
2021/10/19 05:13:36;;;;;;;27.58;5.82;;;;;;;;;;4650827;30;32508;-65
2021/10/19 05:16:03;;;;;;;23.95;5.50;;;;;;;;;;4650749;30;32467;-64
2021/10/19 05:18:31;;;;;;;22.50;4.90;;;;;;;;;;4650805;30;34040;-63
2021/10/19 05:20:58;;;;;;;22.85;4.47;;;;;;;;;;4650631;30;32417;-63
2021/10/19 05:23:25;;;;;;;21.63;5.07;;;;;;;;;;4650739;30;32456;-63
2021/10/19 05:25:51;;;;;;;;;;;;;;;;;;4651291;30;32663;-65
2021/10/19 05:28:18;;;;;;;30.98;6.28;;;;;;;;;;4651549;30;35275;-63
2021/10/19 05:30:44;;;;;;;32.33;7.07;;;;;;;;;;4651405;30;32377;-63
2021/10/19 05:33:11;;;;;;;22.55;5.65;;;;;;;;;;4651540;30;32257;-64
2021/10/19 05:35:39;;;;;;;24.15;5.72;;;;;;;;;;4651407;30;32419;-64
2021/10/19 05:38:06;;;;;;;28.73;6.38;;;;;;;;;;4651297;30;32303;-66
2021/10/19 05:40:32;;;;;;;25.35;5.97;;;;;;;;;;4651493;30;34229;-63
2021/10/19 05:42:59;;;;;;;28.77;5.93;;;;;;;;;;4648892;30;32222;-67
2021/10/19 05:45:26;;;;;;;29.60;6.53;;;;;;;;;;4651468;30;32441;-64
2021/10/19 05:47:52;;;;;;;28.48;5.93;;;;;;;;;;4650696;30;32531;-63
2021/10/19 05:50:20;;;;;;;22.13;5.35;;;;;;;;;;4651621;30;34775;-64
2021/10/19 05:52:48;;;;;;;19.17;4.82;;;;;;;;;;4651106;30;32268;-67
2021/10/19 05:55:14;;;;;;;21.27;4.20;;;;;;;;;;4652122;30;32488;-64
2021/10/19 05:57:41;;;;;;;17.33;4.10;;;;;;;;;;4651775;30;32388;-65
2021/10/19 06:00:09;;;;;;;16.85;3.50;;;;;;;;;;4651915;30;32320;-63
2021/10/19 06:02:36;;;;;;;12.93;3.55;;;;;;;;;;4651455;30;35098;-64
2021/10/19 06:05:03;;;;;;;15.10;3.47;;;;;;;;;;4651748;30;32316;-67
2021/10/19 06:07:30;;;;;;;18.17;3.38;;;;;;;;;;4651812;30;32492;-66
2021/10/19 06:09:58;;;;;;;9.23;2.70;;;;;;;;;;4652038;30;32423;-64
2021/10/19 06:12:24;;;;;;;12.90;3.00;;;;;;;;;;4647037;30;35323;-66
2021/10/19 06:14:51;;;;;;;12.68;2.75;;;;;;;;;;4656762;30;32315;-64
2021/10/19 06:17:17;;;;;;;12.30;2.83;;;;;;;;;;4648852;30;32312;-65
2021/10/19 06:19:44;;;;;;;;;;;;;;;;;;4649801;30;32620;-64
2021/10/19 06:22:10;;;;;;;6.60;2.15;;;;;;;;;;4645906;30;32416;-67
2021/10/19 06:24:37;;;;;;;9.43;2.28;;;;;;;;;;4647121;30;34036;-64
2021/10/19 06:27:05;;;;;;;6.68;2.20;;;;;;;;;;4650057;30;32366;-64
2021/10/19 06:29:31;;;;;;;9.80;2.08;;;;;;;;;;4644806;30;32414;-64
2021/10/19 06:31:58;;;;;;;6.28;1.90;;;;;;;;;;4651515;30;32308;-66
2021/10/19 06:34:25;;;;;;;8.00;1.80;;;;;;;;;;4651692;30;34113;-64
2021/10/19 06:36:51;;;;;;;9.38;2.08;;;;;;;;;;4651541;30;32345;-64
2021/10/19 06:39:18;;;;;;;7.57;1.80;;;;;;;;;;4651060;30;32302;-67
2021/10/19 06:41:44;;;;;;;;;;;;;;;;;;4644391;30;32402;-65
2021/10/19 06:44:12;;;;;;;3.65;1.50;;;;;;;;;;4651137;30;32406;-64
2021/10/19 06:46:39;;;;;;;4.45;1.58;;;;;;;;;;4651383;30;32666;-64
2021/10/19 06:49:05;;;;;;;7.93;1.70;;;;;;;;;;4651322;30;32344;-65
2021/10/19 06:51:32;;;;;;;6.78;2.00;;;;;;;;;;4628956;30;32285;-68
2021/10/19 06:53:59;;;;;;;6.40;1.80;;;;;;;;;;4659087;30;32453;-66
2021/10/19 06:56:25;;;;;;;3.83;1.35;;;;;;;;;;4650954;30;34592;-66
2021/10/19 06:58:52;;;;;;;3.35;1.40;;;;;;;;;;4651342;30;32423;-66
2021/10/19 07:01:20;;;;;;;3.55;1.30;;;;;;;;;;4651151;30;32837;-66
2021/10/19 07:03:47;;;;;;;4.05;1.25;;;;;;;;;;4651176;30;32748;-64
2021/10/19 07:06:13;;;;;;;3.55;1.35;;;;;;;;;;4651264;30;32375;-65
2021/10/19 07:08:39;;;;;;;;;;;;;;;;;;4651599;30;32154;-65
2021/10/19 07:11:07;;;;;;;4.00;1.52;;;;;;;;;;4651916;30;32336;-65
2021/10/19 07:13:34;;;;;;;3.28;1.30;;;;;;;;;;4646358;30;32436;-65
2021/10/19 07:16:01;;;;;;;3.22;1.40;;;;;;;;;;4600317;30;32562;-65
2021/10/19 07:18:29;;;;;;;2.42;1.20;;;;;;;;;;4660503;30;35302;-64
2021/10/19 07:20:55;;;;;;;2.70;1.10;;;;;;;;;;4672554;30;32624;-65
2021/10/19 07:23:22;;;;;;;4.18;1.10;;;;;;;;;;4676343;30;32371;-66
2021/10/19 07:25:49;;;;;;;3.40;1.20;;;;;;;;;;4679880;30;32326;-65
2021/10/19 07:28:16;;;;;;;3.63;1.63;;;;;;;;;;4676507;30;32470;-64
2021/10/19 07:30:43;;;;;;;;;;;;;;;;;;4687298;30;32595;-64
2021/10/19 07:33:09;;;;;;;3.80;1.50;;;;;;;;;;4676014;30;32521;-65
2021/10/19 07:35:37;;;;;;;2.58;1.05;;;;;;;;;;4670515;30;32414;-67
2021/10/19 07:38:05;;;;;;;2.92;1.05;;;;;;;;;;4669904;30;32386;-65
2021/10/19 07:40:32;;;;;;;3.35;1.30;;;;;;;;;;4670082;30;35084;-65
2021/10/19 07:42:59;;;;;;;2.72;1.20;;;;;;;;;;4668709;30;32538;-67
2021/10/19 07:45:26;;;;;;;2.92;1.17;;;;;;;;;;4685141;30;32329;-66
2021/10/19 07:47:53;;;;;;;2.85;1.20;;;;;;;;;;4687141;30;32375;-65
2021/10/19 07:50:21;;;;;;;1.95;0.93;;;;;;;;;;4686399;30;32327;-64
2021/10/19 07:52:51;;;;;;;3.30;0.90;;;;;;;;;;4669036;30;32576;-68
2021/10/19 07:55:19;;;;;;;2.92;1.15;;;;;;;;;;4670010;30;32373;-63
2021/10/19 07:57:47;;;;;;;1.80;0.85;;;;;;;;;;4673484;30;32404;-64
2021/10/19 08:00:16;;;;;;;2.88;1.17;;;;;;;;;;4682220;30;32562;-66
2021/10/19 08:02:43;;;;;;;5.82;1.50;;;;;;;;;;4684176;30;34669;-65
2021/10/19 08:05:14;;;;;;;2.50;1.00;;;;;;;;;;4680669;30;32485;-65
2021/10/19 08:07:41;;;;;;;3.05;0.93;;;;;;;;;;4674398;30;32459;-64
2021/10/19 08:10:11;;;;;;;3.03;1.15;;;;;;;;;;4676080;30;32759;-65
2021/10/19 08:12:37;;;;;;;3.28;1.25;;;;;;;;;;4678080;30;32503;-67
2021/10/19 08:15:06;;;;;;;4.85;1.15;;;;;;;;;;4686086;30;32475;-65
2021/10/19 08:17:33;;;;;;;3.47;0.95;;;;;;;;;;4681288;30;32421;-67
2021/10/19 08:20:00;;;;;;;1.50;0.88;;;;;;;;;;4669830;30;32323;-64
2021/10/19 08:22:28;;;;;;;2.30;1.05;;;;;;;;;;4668949;30;32466;-64
2021/10/19 08:24:55;;;;;;;1.90;0.93;;;;;;;;;;4674719;30;34242;-64
2021/10/19 08:27:24;;;;;;;2.72;1.05;;;;;;;;;;4679970;30;32444;-64
2021/10/19 08:29:51;;;;;;;1.83;1.00;;;;;;;;;;4683121;30;32306;-64
2021/10/19 08:32:18;;;;;;;2.15;1.38;;;;;;;;;;4680618;30;32730;-67
2021/10/19 08:34:45;;;;;;;1.75;0.90;;;;;;;;;;4669518;30;32388;-64
2021/10/19 08:37:12;;;;;;;2.33;1.23;;;;;;;;;;4670226;30;32350;-64
2021/10/19 08:39:38;;;;;;;;;;;;;;;;;;4687547;30;32685;-64
2021/10/19 08:42:05;;;;;;;2.08;0.90;;;;;;;;;;4685986;30;32402;-63
2021/10/19 08:44:33;;;;;;;2.40;1.00;;;;;;;;;;4686757;30;32424;-64
2021/10/19 08:47:01;;;;;;;2.83;1.27;;;;;;;;;;4686413;30;35181;-65
2021/10/19 08:49:28;;;;;;;2.28;1.10;;;;;;;;;;4673751;30;32516;-63
2021/10/19 08:51:54;;;;;;;2.20;1.00;;;;;;;;;;4669717;30;32429;-65
2021/10/19 08:54:21;;;;;;;2.13;1.13;;;;;;;;;;4670071;30;32397;-66
2021/10/19 08:56:47;;;;;;;2.90;1.13;;;;;;;;;;4669617;30;34372;-67
2021/10/19 08:59:21;;;;;;;3.83;1.02;;;;;;;;;;4673604;30;32433;-64
2021/10/19 09:01:54;;;;;;;2.25;1.10;;;;;;;;;;4682963;30;32333;-64
2021/10/19 09:04:21;;;;;;;2.15;1.02;;;;;;;;;;4669185;30;32437;-64
2021/10/19 09:06:48;;;;;;;1.80;1.10;;;;;;;;;;4668993;30;32366;-65
2021/10/19 09:09:16;;;;;;;2.15;1.35;;;;;;;;;;4668415;30;34803;-64
2021/10/19 09:11:45;;;;;;;2.88;1.20;;;;;;;;;;4673207;30;32504;-65
2021/10/19 09:14:12;;;;;;;4.50;1.17;;;;;;;;;;4677185;30;32340;-66
2021/10/19 09:16:41;;;;;;;2.53;1.20;;;;;;;;;;4668201;30;32267;-64
2021/10/19 09:19:10;;;;;;;3.58;1.05;;;;;;;;;;4670136;30;35572;-65
2021/10/19 09:21:42;;;;;;;2.53;1.00;;;;;;;;;;4669453;30;32466;-63
2021/10/19 09:24:21;;;;;;;2.28;1.38;;;;;;;;;;4668903;30;32483;-66
2021/10/19 09:26:57;;;;;;;2.38;1.30;;;;;;;;;;4669396;30;32302;-67
2021/10/19 09:29:26;;;;;;;3.33;1.63;;;;;;;;;;4668714;30;32419;-64
2021/10/19 09:31:54;;;;;;;1.90;1.10;;;;;;;;;;4668190;30;35116;-65
2021/10/19 09:34:23;;;;;;;2.25;0.98;;;;;;;;;;4664425;30;32513;-65
2021/10/19 09:36:51;;;;;;;1.95;1.30;;;;;;;;;;4664256;30;32503;-65
2021/10/19 09:39:36;;;;;;;2.38;1.00;;;;;;;;;;4669071;30;32354;-65
2021/10/19 09:42:05;;;;;;;1.52;0.95;;;;;;;;;;4667821;30;35077;-64
2021/10/19 09:44:32;;;;;;;3.65;1.02;;;;;;;;;;4678320;30;32412;-68
2021/10/19 09:47:00;;;;;;;1.90;1.02;;;;;;;;;;4685266;30;32402;-66
2021/10/19 09:49:29;;;;;;;2.17;1.27;;;;;;;;;;4685215;30;32413;-65
2021/10/19 09:51:58;;;;;;;4.10;1.13;;;;;;;;;;4668154;30;32192;-64
2021/10/19 09:54:29;;;;;;;3.30;1.05;;;;;;;;;;4668516;30;34473;-64
2021/10/19 09:56:58;;;;;;;2.60;0.93;;;;;;;;;;4668781;30;32397;-64
2021/10/19 09:59:25;;;;;;;1.95;0.85;;;;;;;;;;4667926;30;32562;-65
2021/10/19 10:01:52;;;;;;;1.98;1.25;;;;;;;;;;4668647;30;32411;-65
2021/10/19 10:04:21;;;;;;;2.47;0.90;;;;;;;;;;4668507;30;33943;-64
2021/10/19 10:06:50;;;;;;;2.45;1.27;;;;;;;;;;4668706;30;32365;-64
2021/10/19 10:09:18;;;;;;;4.03;0.90;;;;;;;;;;4669124;30;32794;-63
2021/10/19 10:11:44;;;;;;;1.80;1.23;;;;;;;;;;4668674;30;32291;-63
2021/10/19 10:14:12;;;;;;;2.05;1.02;;;;;;;;;;4683010;30;32374;-64
2021/10/19 10:16:44;;;;;;;2.03;1.05;;;;;;;;;;4685359;30;35177;-64
2021/10/19 10:31:25;;;;;;;1.55;0.98;;;;;;;;;;4638706;30;35196;-67
2021/10/19 10:34:02;;;;;;;4.20;0.98;;;;;;;;;;4662509;30;32560;-64
2021/10/19 10:36:38;;;;;;;2.22;0.93;;;;;;;;;;4667111;30;32513;-64
2021/10/19 10:39:07;;;;;;;1.63;0.90;;;;;;;;;;4667937;30;32481;-64
2021/10/19 10:41:37;;;;;;;3.60;0.93;;;;;;;;;;4667196;30;32352;-64
2021/10/19 10:44:05;;;;;;;3.47;1.30;;;;;;;;;;4667091;30;35375;-67
2021/10/19 10:46:35;;;;;;;3.70;1.33;;;;;;;;;;4667077;30;32404;-65
2021/10/19 10:49:02;;;;;;;2.63;1.20;;;;;;;;;;4665711;30;32799;-63
2021/10/19 10:51:30;;;;;;;;;;;;;;;;;;4666311;30;32487;-63
2021/10/19 10:53:57;;;;;;;1.92;0.98;;;;;;;;;;4665283;30;35815;-66
2021/10/19 10:56:25;;;;;;;3.50;1.23;;;;;;;;;;4664437;30;32503;-65
2021/10/19 10:58:52;;;;;;;2.47;1.23;;;;;;;;;;4664375;30;32338;-63
2021/10/19 11:01:22;;;;;;;2.00;1.17;;;;;;;;;;4662641;30;32569;-64
2021/10/19 11:03:55;;;;;;;4.03;1.50;;;;;;;;;;4666449;30;32534;-66
2021/10/19 11:06:24;;;;;;;2.63;1.30;;;;;;;;;;4684241;30;33978;-64
2021/10/19 11:08:57;;;;;;;1.58;1.10;;;;;;;;;;4677650;30;32652;-64
2021/10/19 11:11:24;;;;;;;2.15;1.45;;;;;;;;;;4665979;30;32359;-64
2021/10/19 11:13:54;;;;;;;;;;;;;;;;;;4668142;30;32557;-64
2021/10/19 11:16:31;;;;;;;2.75;1.33;;;;;;;;;;4667262;30;34458;-64
2021/10/19 11:19:00;;;;;;;2.22;1.17;;;;;;;;;;4665061;30;32473;-65
2021/10/19 11:21:26;;;;;;;2.78;1.45;;;;;;;;;;4667979;30;32437;-64
2021/10/19 11:23:55;;;;;;;3.33;1.42;;;;;;;;;;4668428;30;32491;-66
2021/10/19 11:26:22;;;;;;;1.95;1.00;;;;;;;;;;4669452;30;32559;-64
2021/10/19 11:28:49;;;;;;;5.05;1.45;;;;;;;;;;4668704;30;34679;-67
2021/10/19 11:31:16;;;;;;;2.88;1.25;;;;;;;;;;4668424;30;32252;-64
2021/10/19 11:33:45;;;;;;;1.83;1.20;;;;;;;;;;4667096;30;32355;-66
2021/10/19 11:36:14;;;;;;;2.85;1.10;;;;;;;;;;4676350;30;32381;-65
2021/10/19 11:38:42;;;;;;;2.13;1.23;;;;;;;;;;4676359;30;34293;-64
2021/10/19 11:41:10;;;;;;;2.78;1.45;;;;;;;;;;4685161;30;32614;-67
2021/10/19 11:43:40;;;;;;;5.28;1.50;;;;;;;;;;4684716;30;32475;-67
2021/10/19 11:46:13;;;;;;;2.17;1.02;;;;;;;;;;4686112;30;32361;-64
2021/10/19 11:48:41;;;;;;;3.13;1.33;;;;;;;;;;4685802;30;32475;-64
2021/10/19 11:51:11;;;;;;;2.00;1.23;;;;;;;;;;4683025;30;34545;-66
2021/10/19 11:53:40;;;;;;;2.95;1.40;;;;;;;;;;4683474;30;32500;-64
2021/10/19 11:56:08;;;;;;;2.67;1.15;;;;;;;;;;4685636;30;32390;-64
2021/10/19 11:58:35;;;;;;;2.42;0.90;;;;;;;;;;4685451;30;32312;-64
2021/10/19 12:01:02;;;;;;;1.90;1.05;;;;;;;;;;4686584;30;34093;-63
2021/10/19 12:03:30;;;;;;;2.28;1.50;;;;;;;;;;4687246;30;32796;-63
2021/10/19 12:06:14;;;;;;;2.67;1.27;;;;;;;;;;4684542;30;32228;-64
2021/10/19 12:08:48;;;;;;;2.35;1.30;;;;;;;;;;4686079;30;32536;-67
2021/10/19 12:11:16;;;;;;;2.35;1.33;;;;;;;;;;4683129;30;32495;-67
2021/10/19 12:13:54;;;;;;;3.72;1.13;;;;;;;;;;4685422;30;34205;-65
2021/10/19 12:16:25;;;;;;;2.20;1.15;;;;;;;;;;4685352;30;32109;-63
2021/10/19 12:18:56;;;;;;;1.90;1.10;;;;;;;;;;4687036;30;32422;-65
2021/10/19 12:21:23;;;;;;;1.35;1.02;;;;;;;;;;4686667;30;32506;-65
2021/10/19 12:23:53;;;;;;;1.95;0.95;;;;;;;;;;4685808;30;34193;-67
2021/10/19 12:26:21;;;;;;;4.07;1.45;;;;;;;;;;4686509;30;32481;-63
2021/10/19 12:28:50;;;;;;;3.45;1.20;;;;;;;;;;4686160;30;32488;-63
2021/10/19 12:31:17;;;;;;;4.40;1.70;;;;;;;;;;4685493;30;32445;-64
2021/10/19 12:33:44;;;;;;;1.70;1.13;;;;;;;;;;4687117;30;32396;-63
2021/10/19 12:36:11;;;;;;;4.43;1.30;;;;;;;;;;4686875;30;34469;-64
2021/10/19 12:38:40;;;;;;;3.90;1.35;;;;;;;;;;4685953;30;32493;-65
2021/10/19 12:41:11;;;;;;;4.78;2.00;;;;;;;;;;4678967;30;33923;-64
2021/10/19 12:43:40;;;;;;;6.30;2.10;;;;;;;;;;4699870;30;32375;-65
2021/10/19 12:46:08;;;;;;;5.93;1.85;;;;;;;;;;4703850;30;34608;-65
2021/10/19 12:48:39;;;;;;;4.75;1.52;;;;;;;;;;4703711;30;33277;-64
2021/10/19 12:51:09;;;;;;;6.05;2.05;;;;;;;;;;4703857;30;32216;-66
2021/10/19 12:53:36;;;;;;;3.30;1.50;;;;;;;;;;4704677;30;32406;-63
2021/10/19 12:56:04;;;;;;;6.97;1.70;;;;;;;;;;4704700;30;32331;-67
2021/10/19 12:58:32;;;;;;;7.32;1.65;;;;;;;;;;4701421;30;35542;-64
2021/10/19 13:00:59;;;;;;;3.92;1.95;;;;;;;;;;4686874;30;32346;-65
2021/10/19 13:03:26;;;;;;;4.80;2.05;;;;;;;;;;4687105;30;32446;-65
2021/10/19 13:05:53;;;;;;;4.35;1.80;;;;;;;;;;4687304;30;32605;-67
2021/10/19 13:08:20;;;;;;;5.65;1.85;;;;;;;;;;4686755;30;34653;-66
2021/10/19 13:10:47;;;;;;;3.38;1.48;;;;;;;;;;4687019;30;32402;-64
2021/10/19 13:13:14;;;;;;;2.85;1.40;;;;;;;;;;4686804;30;32410;-64
2021/10/19 13:15:42;;;;;;;2.78;1.20;;;;;;;;;;4687079;30;33557;-64
2021/10/19 13:18:09;;;;;;;3.78;1.58;;;;;;;;;;4687193;30;32357;-64
2021/10/19 13:20:35;;;;;;;4.38;1.60;;;;;;;;;;4687055;30;34578;-65
2021/10/19 13:23:02;;;;;;;3.30;1.67;;;;;;;;;;4686695;30;32568;-65
2021/10/19 13:25:29;;;;;;;;;;;;;;;;;;4687543;30;32374;-65
2021/10/19 13:27:56;;;;;;;3.70;1.95;;;;;;;;;;4685386;30;32484;-64
2021/10/19 13:30:23;;;;;;;5.20;2.42;;;;;;;;;;4686621;30;35593;-67
2021/10/19 13:32:51;;;;;;;5.75;2.22;;;;;;;;;;4698095;30;32277;-67
2021/10/19 13:35:19;;;;;;;5.32;2.42;;;;;;;;;;4704321;30;32949;-67
2021/10/19 13:37:46;;;;;;;6.65;2.90;;;;;;;;;;4703972;30;32212;-64
2021/10/19 13:40:13;;;;;;;;;;;;;;;;;;4694260;30;33023;-66
2021/10/19 13:42:40;;;;;;;5.63;2.83;;;;;;;;;;4691631;24;34516;-65
2021/10/19 13:45:07;;;;;;;9.05;3.55;;;;;;;;;;4668760;30;32393;-66
2021/10/19 13:47:34;;;;;;;9.57;3.88;;;;;;;;;;4660920;30;32322;-66
2021/10/19 13:50:04;;;;;;;7.68;3.30;;;;;;;;;;4664163;30;32406;-64
2021/10/19 13:52:31;;;;;;;6.03;3.20;;;;;;;;;;4668853;30;34728;-66
2021/10/19 13:54:57;;;;;;;8.95;3.33;;;;;;;;;;4668888;30;32468;-68
2021/10/19 13:57:24;;;;;;;6.57;3.35;;;;;;;;;;4668764;30;32317;-65
2021/10/19 13:59:51;;;;;;;8.70;3.55;;;;;;;;;;4668553;30;32308;-65
2021/10/19 14:02:18;;;;;;;5.82;2.72;;;;;;;;;;4668555;30;32396;-67
2021/10/19 14:04:44;;;;;;;9.25;2.78;;;;;;;;;;4668327;30;36549;-66
2021/10/19 14:07:12;;;;;;;6.13;2.45;;;;;;;;;;4668577;30;32447;-68
2021/10/19 14:09:39;;;;;;;8.25;2.63;;;;;;;;;;4668361;30;32375;-67
2021/10/19 14:12:09;;;;;;;5.88;2.30;;;;;;;;;;4666243;30;32773;-65
2021/10/19 14:14:36;;;;;;;8.18;2.80;;;;;;;;;;4659304;30;35327;-66
2021/10/19 14:17:04;;;;;;;5.97;2.53;;;;;;;;;;4657272;30;32635;-66
2021/10/19 14:19:31;;;;;;;6.63;2.63;;;;;;;;;;4665949;30;32497;-65
2021/10/19 14:21:57;;;;;;;11.02;2.70;;;;;;;;;;4665944;30;32740;-64
2021/10/19 14:24:25;;;;;;;4.57;2.42;;;;;;;;;;4680351;30;32303;-63
2021/10/19 14:26:52;;;;;;;6.20;2.63;;;;;;;;;;4663138;30;34946;-65
2021/10/19 14:29:19;;;;;;;6.22;1.90;;;;;;;;;;4672065;30;32288;-67
2021/10/19 14:31:48;;;;;;;4.32;2.13;;;;;;;;;;4667047;30;32359;-64
2021/10/19 14:34:19;;;;;;;7.75;2.25;;;;;;;;;;4668369;30;32620;-62
2021/10/19 14:36:47;;;;;;;4.40;2.28;;;;;;;;;;4667878;30;34643;-66
2021/10/19 14:39:15;;;;;;;5.70;2.45;;;;;;;;;;4671121;30;32554;-62
2021/10/19 14:41:44;;;;;;;4.38;2.25;;;;;;;;;;4673483;30;32485;-62
2021/10/19 14:44:14;;;;;;;8.75;2.35;;;;;;;;;;4674193;30;32390;-64
2021/10/19 14:46:41;;;;;;;5.38;2.40;;;;;;;;;;4674492;30;32328;-63
2021/10/19 14:49:08;;;;;;;7.72;2.60;;;;;;;;;;4673451;30;35266;-62
2021/10/19 14:51:36;;;;;;;;;;;;;;;;;;4670339;30;32386;-64
2021/10/19 14:54:03;;;;;;;8.45;2.95;;;;;;;;;;4672077;30;32291;-64
2021/10/19 14:56:30;;;;;;;6.22;2.55;;;;;;;;;;4657845;30;32441;-62
2021/10/19 14:58:58;;;;;;;4.82;2.55;;;;;;;;;;4672980;30;34044;-63
2021/10/19 15:01:25;;;;;;;6.05;2.72;;;;;;;;;;4673899;30;32485;-64